Time;durP1;ratioP1;P1;durP2;ratioP2;P2;SDS_P1;SDS_P2;PMS_P1;PMS_P2;Temp;Humidity;BMP_temperature;BMP_pressure;BME280_temperature;BME280_humidity;BME280_pressure;Samples;Min_cycle;Max_cycle;Signal;HPM_P1;HPM_P2
2021/04/24 00:02:00;;;;;;;;;;;;;;;-142.75;62.12;79400.00;5092315;28;19915;-74
2021/04/24 00:04:26;;;;;;;;;;;;;;;-142.75;62.40;79396.06;5092694;28;19926;-74
2021/04/24 00:06:51;;;;;;;;;;;;;;;-142.75;62.92;79403.94;5092339;28;19919;-74
2021/04/24 00:09:16;;;;;;;;;;;;;;;-142.75;63.54;79403.94;5092475;28;20289;-75
2021/04/24 00:11:42;;;;;;;;;;;;;;;-142.75;63.67;79401.97;5091727;28;20335;-75
2021/04/24 00:14:07;;;;;;;;;;;;;;;-142.75;63.97;79401.97;5074435;28;19912;-75
2021/04/24 00:16:32;;;;;;;;;;;;;;;-142.75;63.84;79386.19;5073509;28;19919;-74
2021/04/24 00:18:57;;;;;;;;;;;;;;;-142.75;63.48;79382.25;5074314;28;20369;-74
2021/04/24 00:21:23;;;;;;;;;;;;;;;-142.75;63.75;79382.25;5092104;28;19926;-74
2021/04/24 00:23:48;;;;;;;;;;;;;;;-142.75;64.01;79372.41;5073962;28;19918;-75
2021/04/24 00:26:13;;;;;;;;;;;;;;;-142.75;64.03;79382.25;5074095;28;19946;-76
2021/04/24 00:28:38;;;;;;;;;;;;;;;-142.75;63.84;79382.25;5092156;28;20093;-75
2021/04/24 00:31:03;;;;;;;;;;;;;;;-142.75;63.90;79378.31;5091932;28;19957;-76
2021/04/24 00:33:29;;;;;;;;;;;;;;;-142.75;63.58;79362.56;5091953;28;19915;-74
2021/04/24 00:35:54;;;;;;;;;;;;;;;-142.75;63.10;79358.63;5091950;28;19912;-74
2021/04/24 00:38:19;;;;;;;;;;;;;;;-142.75;63.02;79362.56;5092111;28;19912;-74
2021/04/24 00:40:45;;;;;;;;;;;;;;;-142.75;63.24;79366.50;5073655;28;19935;-74
2021/04/24 00:43:11;;;;;;;;;;;;;;;-142.75;62.99;79370.44;5092202;28;20481;-73
2021/04/24 00:45:37;;;;;;;;;;;;;;;-142.75;63.23;79378.31;5091715;28;19904;-74
2021/04/24 00:48:02;;;;;;;;;;;;;;;-142.75;63.23;79374.38;5091678;28;19912;-74
2021/04/24 00:50:29;;;;;;;;;;;;;;;-142.75;63.18;79374.38;5073398;28;20397;-72
2021/04/24 00:52:54;;;;;;;;;;;;;;;-142.75;62.83;79368.47;5091857;28;19966;-74
2021/04/24 00:55:20;;;;;;;;;;;;;;;-142.75;62.93;79384.22;5073425;28;19951;-74
2021/04/24 00:57:45;;;;;;;;;;;;;;;-142.75;62.93;79390.13;5073402;28;19934;-73
2021/04/24 01:00:12;;;;;;;;;;;;;;;-142.75;63.21;79407.88;5073493;28;20403;-74
2021/04/24 01:02:37;;;;;;;;;;;;;;;-142.75;63.39;79394.09;5091499;28;19912;-74
2021/04/24 01:05:04;;;;;;;;;;;;;;;-142.75;63.45;79392.13;5073263;28;20293;-74
2021/04/24 01:07:30;;;;;;;;;;;;;;;-142.75;63.21;79400.00;5091509;28;20324;-74
2021/04/24 01:09:55;;;;;;;;;;;;;;;-142.75;62.97;79405.91;5091464;28;19912;-74
2021/04/24 01:12:20;;;;;;;;;;;;;;;-142.75;63.53;79413.78;5072456;28;20019;-74
2021/04/24 01:14:45;;;;;;;;;;;;;;;-142.75;63.29;79425.59;5073146;28;20293;-74
2021/04/24 01:17:10;;;;;;;;;;;;;;;-142.75;62.93;79441.34;5072588;28;19912;-74
2021/04/24 01:19:36;;;;;;;;;;;;;;;-142.75;63.19;79466.97;5091406;28;19912;-74
2021/04/24 01:22:08;;;;;;;;;;;;;;;-142.75;62.76;79484.69;5090849;28;20395;-73
2021/04/24 01:24:33;;;;;;;;;;;;;;;-142.75;63.14;79484.69;5091266;28;19973;-74
2021/04/24 01:26:59;;;;;;;;;;;;;;;-142.75;63.25;79480.75;5087979;28;20373;-74
2021/04/24 01:29:24;;;;;;;;;;;;;;;-142.75;63.42;79480.75;5072908;28;19965;-74
2021/04/24 01:31:49;;;;;;;;;;;;;;;-142.75;63.42;79500.47;5072646;28;20280;-74
2021/04/24 01:34:14;;;;;;;;;;;;;;;-142.75;63.53;79504.41;5091029;28;20297;-74
2021/04/24 01:36:40;;;;;;;;;;;;;;;-142.75;63.42;79516.22;5090715;28;19916;-73
2021/04/24 01:39:05;;;;;;;;;;;;;;;-142.75;63.34;79520.16;5072685;28;19916;-74
2021/04/24 01:41:31;;;;;;;;;;;;;;;-142.75;63.54;79524.09;5090573;28;19923;-73
2021/04/24 01:43:57;;;;;;;;;;;;;;;-142.75;63.07;79528.03;5090885;28;20436;-73
2021/04/24 01:46:23;;;;;;;;;;;;;;;-142.75;63.36;79528.03;5090776;28;20057;-74
2021/04/24 01:48:48;;;;;;;;;;;;;;;-142.75;63.14;79530.00;5072820;28;19920;-73
2021/04/24 01:51:14;;;;;;;;;;;;;;;-142.75;63.36;79526.06;5090384;28;19951;-73
2021/04/24 01:53:40;;;;;;;;;;;;;;;-142.75;63.77;79531.97;5090744;28;19916;-75
2021/04/24 01:56:06;;;;;;;;;;;;;;;-142.75;63.82;79535.91;5090651;28;19923;-74
2021/04/24 01:58:32;;;;;;;;;;;;;;;-142.75;63.78;79533.94;5072777;28;19998;-74
2021/04/24 02:00:58;;;;;;;;;;;;;;;-142.75;63.52;79533.94;5090392;28;19966;-74
2021/04/24 02:03:24;;;;;;;;;;;;;;;-142.75;63.43;79535.91;5091085;28;20293;-73
2021/04/24 02:05:50;;;;;;;;;;;;;;;-142.75;63.45;79535.91;5090301;28;19923;-73
2021/04/24 02:08:17;;;;;;;;;;;;;;;-142.75;63.03;79535.91;5090773;28;19943;-73
2021/04/24 02:10:45;;;;;;;;;;;;;;;-142.75;62.71;79543.78;5090312;28;19912;-73
2021/04/24 02:13:11;;;;;;;;;;;;;;;-142.75;62.67;79545.75;5072434;28;19920;-73
2021/04/24 02:15:37;;;;;;;;;;;;;;;-142.75;62.86;79549.69;5090535;28;19998;-74
2021/04/24 02:18:03;;;;;;;;;;;;;;;-142.75;62.95;79553.63;5072848;28;20006;-73
2021/04/24 02:20:28;;;;;;;;;;;;;;;-142.75;63.33;79561.53;5094146;28;19954;-72
2021/04/24 02:22:54;;;;;;;;;;;;;;;-142.75;64.35;79545.75;5094493;28;19923;-74
2021/04/24 02:25:20;;;;;;;;;;;;;;;-142.75;63.61;79545.75;5094338;28;19912;-74
2021/04/24 02:27:45;;;;;;;;;;;;;;;-142.75;64.66;79528.03;5094390;28;20289;-74
2021/04/24 02:30:14;;;;;;;;;;;;;;;-142.75;64.78;79518.19;5075932;28;19912;-72
2021/04/24 02:32:39;;;;;;;;;;;;;;;-142.75;64.83;79504.41;5075635;28;20017;-74
2021/04/24 02:35:06;;;;;;;;;;;;;;;-142.75;64.07;79530.00;5075743;28;19912;-73
2021/04/24 02:37:31;;;;;;;;;;;;;;;-142.75;63.35;79547.72;5094214;28;19916;-72
2021/04/24 02:39:56;;;;;;;;;;;;;;;-142.75;63.40;79565.47;5094152;28;19919;-73
2021/04/24 02:42:26;;;;;;;;;;;;;;;-142.75;63.29;79581.22;5093854;28;19918;-73
2021/04/24 02:44:52;;;;;;;;;;;;;;;-142.75;63.49;79593.03;5094034;28;19922;-73
2021/04/24 02:47:19;;;;;;;;;;;;;;;-142.75;63.64;79595.00;5093901;28;19912;-72
2021/04/24 02:49:45;;;;;;;;;;;;;;;-142.75;63.93;79602.88;5093915;28;19919;-73
2021/04/24 02:52:10;;;;;;;;;;;;;;;-142.75;64.29;79606.84;5093379;28;20293;-73
2021/04/24 02:54:35;;;;;;;;;;;;;;;-142.75;63.99;79610.78;5093855;28;19911;-73
2021/04/24 02:57:01;;;;;;;;;;;;;;;-142.75;64.03;79606.84;5075075;28;19920;-73
2021/04/24 02:59:27;;;;;;;;;;;;;;;-142.75;63.68;79610.78;5093819;28;19912;-72
2021/04/24 03:01:53;;;;;;;;;;;;;;;-142.75;63.82;79604.88;5093542;28;19919;-72
2021/04/24 03:04:18;;;;;;;;;;;;;;;-142.75;63.95;79606.84;5090934;28;19912;-72
2021/04/24 03:06:44;;;;;;;;;;;;;;;-142.75;64.00;79608.81;5093709;28;19912;-73
2021/04/24 03:09:09;;;;;;;;;;;;;;;-142.75;63.81;79612.75;5093490;28;19970;-73
2021/04/24 03:11:36;;;;;;;;;;;;;;;-142.75;63.46;79610.78;5074960;28;19945;-73
2021/04/24 03:14:01;;;;;;;;;;;;;;;-142.75;63.27;79614.72;5092758;28;19912;-73
2021/04/24 03:16:27;;;;;;;;;;;;;;;-142.75;63.32;79614.72;5092461;28;19912;-74
2021/04/24 03:18:55;;;;;;;;;;;;;;;-142.75;63.22;79622.59;5074450;28;20006;-71
2021/04/24 03:21:25;;;;;;;;;;;;;;;-142.75;63.45;79614.72;5093124;28;19919;-72
2021/04/24 03:23:50;;;;;;;;;;;;;;;-142.75;63.39;79618.66;5093465;28;19912;-73
2021/04/24 03:26:15;;;;;;;;;;;;;;;-142.75;63.46;79630.47;5075035;28;19912;-73
2021/04/24 03:28:41;;;;;;;;;;;;;;;-142.75;63.52;79626.53;5093149;28;19912;-73
2021/04/24 03:31:06;;;;;;;;;;;;;;;-142.75;63.54;79642.28;5091916;28;20003;-73
2021/04/24 03:33:31;;;;;;;;;;;;;;;-142.75;63.99;79646.22;5093325;28;19916;-73
2021/04/24 03:35:57;;;;;;;;;;;;;;;-142.75;64.54;79658.06;5117872;22;19912;-72
2021/04/24 03:38:22;;;;;;;;;;;;;;;-142.75;64.26;79658.06;5070796;28;20326;-74
2021/04/24 03:40:47;;;;;;;;;;;;;;;-142.75;63.84;79652.13;5090182;28;19911;-73
2021/04/24 03:43:12;;;;;;;;;;;;;;;-142.75;63.96;79654.13;5093104;28;19912;-73
2021/04/24 03:45:38;;;;;;;;;;;;;;;-142.75;63.93;79654.13;5074928;28;20393;-72
2021/04/24 03:48:03;;;;;;;;;;;;;;;-142.75;64.00;79654.13;5092919;28;19927;-73
2021/04/24 03:50:28;;;;;;;;;;;;;;;-142.75;63.91;79658.06;5074478;28;19911;-71
2021/04/24 03:52:54;;;;;;;;;;;;;;;-142.75;64.03;79660.03;5074602;28;19916;-73
2021/04/24 03:55:19;;;;;;;;;;;;;;;-142.75;64.15;79665.94;5092854;28;20403;-72
2021/04/24 03:57:48;;;;;;;;;;;;;;;-142.75;64.13;79669.88;5092663;28;20054;-73
2021/04/24 04:00:15;;;;;;;;;;;;;;;-142.75;63.70;79669.88;5074468;28;19916;-73
2021/04/24 04:02:43;;;;;;;;;;;;;;;-142.75;64.19;79671.84;5092418;28;19931;-73
2021/04/24 04:05:09;;;;;;;;;;;;;;;-142.75;63.96;79683.66;5074809;28;20293;-73
2021/04/24 04:07:34;;;;;;;;;;;;;;;-142.75;64.21;79679.72;5074398;28;19916;-73
2021/04/24 04:09:59;;;;;;;;;;;;;;;-142.75;64.11;79677.75;5092760;28;19918;-73
2021/04/24 04:12:24;;;;;;;;;;;;;;;-142.75;63.53;79685.63;5092061;28;19977;-73
2021/04/24 04:14:50;;;;;;;;;;;;;;;-142.75;63.95;79697.44;5074370;28;20290;-73
2021/04/24 04:17:15;;;;;;;;;;;;;;;-142.75;64.40;79705.34;5074178;28;19920;-73
2021/04/24 04:19:40;;;;;;;;;;;;;;;-142.75;64.66;79717.16;5092337;28;19912;-72
2021/04/24 04:22:05;;;;;;;;;;;;;;;-142.75;64.36;79717.16;5091939;28;19912;-73
2021/04/24 04:24:30;;;;;;;;;;;;;;;-142.75;64.67;79725.03;5073872;28;19951;-72
2021/04/24 04:26:55;;;;;;;;;;;;;;;-142.75;64.37;79725.03;5074068;28;19980;-73
2021/04/24 04:29:21;;;;;;;;;;;;;;;-142.75;64.71;79732.91;5074042;28;19927;-73
2021/04/24 04:31:46;;;;;;;;;;;;;;;-142.75;64.48;79734.88;5073580;28;19927;-73
2021/04/24 04:34:11;;;;;;;;;;;;;;;-142.75;64.78;79740.78;5073966;28;20392;-73
2021/04/24 04:36:36;;;;;;;;;;;;;;;-142.75;64.87;79744.72;5091783;28;19912;-73
2021/04/24 04:39:02;;;;;;;;;;;;;;;-142.75;64.84;79740.78;5073960;28;19935;-73
2021/04/24 04:41:27;;;;;;;;;;;;;;;-142.75;64.76;79736.84;5091351;28;20292;-73
2021/04/24 04:43:52;;;;;;;;;;;;;;;-142.75;64.45;79732.91;5091876;28;19930;-73
2021/04/24 04:46:17;;;;;;;;;;;;;;;-142.75;64.66;79721.09;5091749;28;19920;-72
2021/04/24 04:48:42;;;;;;;;;;;;;;;-142.75;64.85;79713.22;5091885;28;19912;-73
2021/04/24 04:51:08;;;;;;;;;;;;;;;-142.75;64.79;79703.38;5073310;28;19912;-73
2021/04/24 04:53:33;;;;;;;;;;;;;;;-142.75;64.42;79695.47;5091714;28;19915;-74
2021/04/24 04:55:58;;;;;;;;;;;;;;;-142.75;64.66;79677.75;5073541;28;19918;-73
2021/04/24 04:58:25;;;;;;;;;;;;;;;-142.75;64.79;79671.84;5091696;28;19955;-73
2021/04/24 05:00:50;;;;;;;;;;;;;;;-142.75;64.80;79660.03;5073291;28;19919;-73
2021/04/24 05:03:15;;;;;;;;;;;;;;;-142.75;65.04;79662.00;5073546;28;19912;-74
2021/04/24 05:05:41;;;;;;;;;;;;;;;-142.75;64.71;79658.06;5091690;28;20535;-73
2021/04/24 05:08:06;;;;;;;;;;;;;;;-142.75;64.67;79650.16;5073556;28;20293;-74
2021/04/24 05:10:31;;;;;;;;;;;;;;;-142.75;64.55;79640.31;5072894;28;19912;-73
2021/04/24 05:12:58;;;;;;;;;;;;;;;-142.75;64.78;79632.44;5073215;28;19923;-74
2021/04/24 05:15:23;;;;;;;;;;;;;;;-142.75;64.41;79622.59;5073339;28;19923;-73
2021/04/24 05:17:48;;;;;;;;;;;;;;;-142.75;64.55;79610.78;5073313;28;19916;-73
2021/04/24 05:20:14;;;;;;;;;;;;;;;-142.75;64.57;79596.97;5073143;28;19919;-73
2021/04/24 05:22:40;;;;;;;;;;;;;;;-142.75;64.72;79589.09;5091185;28;20006;-73
2021/04/24 05:25:06;;;;;;;;;;;;;;;-142.75;65.15;79581.22;5091337;28;19966;-74
2021/04/24 05:27:31;;;;;;;;;;;;;;;-142.75;65.11;79555.63;5091333;28;19919;-72
2021/04/24 05:29:57;;;;;;;;;;;;;;;-142.75;65.08;79539.84;5091218;28;19981;-73
2021/04/24 05:32:22;;;;;;;;;;;;;;;-142.75;65.26;79496.50;5072777;28;20305;-73
2021/04/24 05:34:47;;;;;;;;;;;;;;;-142.75;64.93;79484.69;5091239;28;19951;-73
2021/04/24 05:37:13;;;;;;;;;;;;;;;-142.75;64.20;79480.75;5072923;28;20266;-73
2021/04/24 05:39:38;;;;;;;;;;;;;;;-142.75;64.19;79463.03;5073038;28;19918;-73
2021/04/24 05:42:03;;;;;;;;;;;;;;;-142.75;64.37;79439.38;5090890;28;20369;-72
2021/04/24 05:44:29;;;;;;;;;;;;;;;-142.75;64.42;79356.66;5072964;28;19912;-74
2021/04/24 05:46:54;;;;;;;;;;;;;;;-142.75;62.79;79287.72;5072996;28;19920;-73
2021/04/24 05:49:19;;;;;;;;;;;;;;;-142.75;61.35;79242.41;5072859;28;19935;-73
2021/04/24 05:51:44;;;;;;;;;;;;;;;-142.75;60.56;79201.03;5090661;28;19986;-73
2021/04/24 05:54:09;;;;;;;;;;;;;;;-142.75;60.24;79157.72;5094090;28;19912;-73
2021/04/24 05:56:35;;;;;;;;;;;;;;;-142.75;59.22;79086.78;5095189;28;20300;-73
2021/04/24 05:59:00;;;;;;;;;;;;;;;-142.75;58.11;79011.94;5095088;28;20021;-74
2021/04/24 06:01:25;;;;;;;;;;;;;;;-142.75;57.48;78954.81;5094790;28;19926;-73
2021/04/24 06:03:52;;;;;;;;;;;;;;;-142.75;56.68;78848.47;5094954;28;19911;-73
2021/04/24 06:06:17;;;;;;;;;;;;;;;-142.75;54.82;78787.41;5094692;28;20258;-72
2021/04/24 06:08:42;;;;;;;;;;;;;;;-142.75;54.26;78751.97;5076552;28;19918;-73
2021/04/24 06:11:08;;;;;;;;;;;;;;;-142.75;53.66;78677.13;5094325;28;19934;-73
2021/04/24 06:13:33;;;;;;;;;;;;;;;-142.75;51.21;78620.00;5094572;28;20007;-73
2021/04/24 06:15:58;;;;;;;;;;;;;;;-142.75;50.02;78608.19;5076226;28;19919;-73
2021/04/24 06:18:23;;;;;;;;;;;;;;;-142.75;50.36;78633.78;5076526;28;20344;-73
2021/04/24 06:20:48;;;;;;;;;;;;;;;-142.75;50.63;78657.41;5094443;28;19920;-73
2021/04/24 06:23:14;;;;;;;;;;;;;;;-142.75;51.46;78712.56;5094675;28;19912;-73
2021/04/24 06:25:39;;;;;;;;;;;;;;;-142.75;51.91;78724.38;5094819;28;19911;-72
2021/04/24 06:28:04;;;;;;;;;;;;;;;-142.75;51.84;78704.69;5076209;28;19911;-73
2021/04/24 06:30:30;;;;;;;;;;;;;;;-142.75;52.15;78677.13;5094201;28;19919;-73
2021/04/24 06:32:56;;;;;;;;;;;;;;;-142.75;51.38;78625.91;5094346;28;19922;-74
2021/04/24 06:35:22;;;;;;;;;;;;;;;-142.75;50.25;78519.56;5094373;28;20402;-73
2021/04/24 06:37:47;;;;;;;;;;;;;;;-142.75;48.62;78466.38;5094084;28;19927;-73
2021/04/24 06:40:14;;;;;;;;;;;;;;;-142.75;49.69;78657.41;5076245;28;20315;-74
2021/04/24 06:42:40;;;;;;;;;;;;;;;-142.75;50.90;78718.47;5093791;28;19912;-74
2021/04/24 06:45:06;;;;;;;;;;;;;;;-142.75;52.09;78736.19;5094289;28;19918;-73
2021/04/24 06:47:31;;;;;;;;;;;;;;;-142.75;51.56;78669.25;5075868;28;19920;-73
2021/04/24 06:49:57;;;;;;;;;;;;;;;-142.75;51.20;78661.34;5094122;28;19919;-74
2021/04/24 06:52:22;;;;;;;;;;;;;;;-142.75;51.81;78661.34;5075735;28;19930;-74
2021/04/24 06:54:47;;;;;;;;;;;;;;;-142.75;50.70;78556.97;5076886;28;19916;-74
2021/04/24 06:57:12;;;;;;;;;;;;;;;-142.75;49.10;78482.13;5093989;28;20415;-73
2021/04/24 06:59:37;;;;;;;;;;;;;;;-142.75;48.47;78488.03;5075788;28;19912;-74
2021/04/24 07:02:03;;;;;;;;;;;;;;;-142.75;48.96;78576.66;5093098;28;19941;-73
2021/04/24 07:04:28;;;;;;;;;;;;;;;-142.75;49.69;78427.00;5075357;28;20377;-74
2021/04/24 07:06:53;;;;;;;;;;;;;;;-142.75;48.01;78517.59;5093011;28;19912;-73
2021/04/24 07:09:19;;;;;;;;;;;;;;;-142.75;49.56;78428.97;5092829;28;19912;-73
2021/04/24 07:11:44;;;;;;;;;;;;;;;-142.75;46.96;78295.06;5074293;28;19919;-72
2021/04/24 07:14:09;;;;;;;;;;;;;;;-142.75;45.80;78281.25;5074238;28;19911;-73
2021/04/24 07:16:34;;;;;;;;;;;;;;;-142.75;44.81;78188.72;5092583;28;19919;-73
2021/04/24 07:18:59;;;;;;;;;;;;;;;-142.75;46.05;78247.78;5092680;28;20636;-74
2021/04/24 07:21:25;;;;;;;;;;;;;;;-142.75;43.79;78216.28;5092094;28;19924;-74
2021/04/24 07:23:51;;;;;;;;;;;;;;;-142.75;42.98;78048.88;5074218;28;19930;-73
2021/04/24 07:26:16;;;;;;;;;;;;;;;-142.75;41.94;78042.97;5074421;28;19926;-74
2021/04/24 07:28:42;;;;;;;;;;;;;;;-142.75;39.77;78009.50;5092181;28;19916;-73
2021/04/24 07:31:09;;;;;;;;;;;;;;;-142.75;42.53;78249.75;5092030;28;20011;-73
2021/04/24 07:33:34;;;;;;;;;;;;;;;-142.75;42.47;78186.75;5092216;28;20010;-72
2021/04/24 07:35:59;;;;;;;;;;;;;;;-142.75;42.97;78232.03;5091891;28;20327;-73
2021/04/24 07:38:25;;;;;;;;;;;;;;;-142.75;42.96;78145.38;5092212;28;19912;-72
2021/04/24 07:40:50;;;;;;;;;;;;;;;-142.75;42.40;78172.94;5073848;28;19969;-73
2021/04/24 07:43:16;;;;;;;;;;;;;;;-142.75;40.54;78133.56;5091989;28;19912;-73
2021/04/24 07:45:42;;;;;;;;;;;;;;;-142.75;42.96;78275.34;5074014;28;19967;-73
2021/04/24 07:48:07;;;;;;;;;;;;;;;-142.75;42.16;78139.47;5091900;28;19923;-72
2021/04/24 07:50:33;;;;;;;;;;;;;;;-142.75;42.75;78285.19;5091590;28;20328;-73
2021/04/24 07:52:59;;;;;;;;;;;;;;;-142.75;42.65;78310.81;5091862;28;19927;-74
2021/04/24 07:55:24;;;;;;;;;;;;;;;-142.75;44.12;78289.13;5091906;28;19977;-73
2021/04/24 07:57:49;;;;;;;;;;;;;;;-142.75;42.54;78159.16;5091536;28;19943;-74
2021/04/24 08:00:16;;;;;;;;;;;;;;;-142.75;41.78;78147.34;5091824;28;20450;-72
2021/04/24 08:02:41;;;;;;;;;;;;;;;-142.75;39.30;78042.97;5073443;28;19920;-74
2021/04/24 08:05:07;;;;;;;;;;;;;;;-142.75;40.22;77960.28;5092140;28;20003;-72
2021/04/24 08:07:32;;;;;;;;;;;;;;;-142.75;39.00;77903.16;5091359;28;19915;-71
2021/04/24 08:09:57;;;;;;;;;;;;;;;-142.75;39.89;77983.91;5091378;28;19918;-72
2021/04/24 08:12:22;;;;;;;;;;;;;;;-142.75;39.15;77964.22;5091192;28;19916;-72
2021/04/24 08:14:48;;;;;;;;;;;;;;;-142.75;38.17;78029.19;5073247;28;19931;-71
2021/04/24 08:17:14;;;;;;;;;;;;;;;-142.75;41.43;78046.91;5090556;28;19954;-73
2021/04/24 08:19:39;;;;;;;;;;;;;;;-142.75;42.08;78208.41;5073354;28;19968;-72
2021/04/24 08:22:08;;;;;;;;;;;;;;;-142.75;39.76;78157.19;5072703;28;20384;-71
2021/04/24 08:24:34;;;;;;;;;;;;;;;-142.75;40.95;78031.16;5091198;28;19911;-73
2021/04/24 08:26:59;;;;;;;;;;;;;;;-142.75;38.70;77968.16;5073124;28;19912;-72
2021/04/24 08:29:24;;;;;;;;;;;;;;;-142.75;39.55;77991.78;5091256;28;19920;-73
2021/04/24 08:31:50;;;;;;;;;;;;;;;-142.75;39.93;77974.06;5072508;28;19919;-73
2021/04/24 08:34:17;;;;;;;;;;;;;;;-142.75;39.79;77850.00;5091318;28;19930;-73
2021/04/24 08:36:42;;;;;;;;;;;;;;;-142.75;37.03;77737.78;5090601;28;19912;-73
2021/04/24 08:39:07;;;;;;;;;;;;;;;-142.75;36.37;77790.94;5091826;28;19911;-73
2021/04/24 08:41:32;;;;;;;;;;;;;;;-142.75;35.71;77678.69;5091450;28;19923;-73
2021/04/24 08:43:58;;;;;;;;;;;;;;;-142.75;35.34;77674.75;5091782;28;19912;-72
2021/04/24 08:46:24;;;;;;;;;;;;;;;-142.75;34.80;77810.63;5091686;28;19917;-70
2021/04/24 08:48:52;;;;;;;;;;;;;;;-142.75;37.55;77946.50;5091695;28;19920;-71
2021/04/24 08:51:19;;;;;;;;;;;;;;;-142.75;37.09;77879.53;5073119;28;20292;-70
2021/04/24 08:53:44;;;;;;;;;;;;;;;-142.75;36.03;77773.22;5091441;28;19923;-71
2021/04/24 08:56:09;;;;;;;;;;;;;;;-142.75;34.88;77761.41;5091438;28;19911;-73
2021/04/24 08:58:35;;;;;;;;;;;;;;;-142.75;34.20;77639.31;5091738;28;19912;-73
2021/04/24 09:01:00;;;;;;;;;;;;;;;-142.75;33.76;77631.44;5091322;28;19943;-73
2021/04/24 09:03:25;;;;;;;;;;;;;;;-142.75;33.75;77706.25;5091412;28;19919;-73
2021/04/24 09:05:51;;;;;;;;;;;;;;;-142.75;33.39;77877.56;5073373;28;19916;-72
2021/04/24 09:08:24;;;;;;;;;;;;;;;-142.75;35.42;77997.69;5073480;28;19943;-74
2021/04/24 09:10:49;;;;;;;;;;;;;;;-142.75;36.76;77871.66;5073427;28;20340;-71
2021/04/24 09:13:19;;;;;;;;;;;;;;;-142.75;35.01;77627.50;5091272;28;19916;-71
2021/04/24 09:15:45;;;;;;;;;;;;;;;-142.75;33.59;77468.03;5090871;28;19921;-73
2021/04/24 09:18:12;;;;;;;;;;;;;;;-142.75;30.43;77452.25;5072356;28;19912;-73
2021/04/24 09:20:46;;;;;;;;;;;;;;;-142.75;31.97;77454.25;5090428;28;20002;-72
2021/04/24 09:23:12;;;;;;;;;;;;;;;-142.75;32.33;77572.38;5073255;28;20340;-73
2021/04/24 09:25:46;;;;;;;;;;;;;;;-142.75;34.04;77623.56;5091196;28;19916;-74
2021/04/24 09:28:12;;;;;;;;;;;;;;;-142.75;33.40;77503.47;5072994;28;20429;-72
2021/04/24 09:30:39;;;;;;;;;;;;;;;-142.75;33.34;77405.00;5072777;28;19912;-72
2021/04/24 09:33:06;;;;;;;;;;;;;;;-142.75;32.45;77397.13;5091221;28;19977;-73
2021/04/24 09:35:58;;;;;;;;;;;;;;;-142.75;32.72;77442.41;5091219;28;19919;-72
2021/04/24 09:38:25;;;;;;;;;;;;;;;-142.75;31.40;77312.47;5088229;28;19919;-72
2021/04/24 09:41:08;;;;;;;;;;;;;;;-142.75;31.82;77420.75;5090928;28;19912;-73
2021/04/24 09:43:45;;;;;;;;;;;;;;;-142.75;31.64;77592.06;5091178;28;19916;-72
2021/04/24 09:46:11;;;;;;;;;;;;;;;-142.75;32.53;77700.34;5090922;28;19912;-74
2021/04/24 09:48:36;;;;;;;;;;;;;;;-142.75;33.25;77603.88;5073019;28;19923;-71
2021/04/24 09:51:11;;;;;;;;;;;;;;;-142.75;33.43;77420.75;5090765;28;19912;-73
2021/04/24 09:53:36;;;;;;;;;;;;;;;-142.75;30.99;77338.06;5072916;28;19916;-73
2021/04/24 09:56:01;;;;;;;;;;;;;;;-142.75;30.94;77314.44;5072711;28;19926;-73
2021/04/24 09:58:28;;;;;;;;;;;;;;;-142.75;30.61;77298.69;5072863;28;19912;-73
2021/04/24 10:00:55;;;;;;;;;;;;;;;-142.75;29.49;77208.13;5072496;28;19919;-73
2021/04/24 10:03:33;;;;;;;;;;;;;;;-142.75;29.72;77188.44;5090877;28;19912;-73
2021/04/24 10:06:18;;;;;;;;;;;;;;;-142.75;29.88;77290.81;5072668;28;19912;-72
2021/04/24 10:08:43;;;;;;;;;;;;;;;-142.75;30.41;77403.03;5072245;28;19916;-73
2021/04/24 10:11:08;;;;;;;;;;;;;;;-142.75;30.76;77361.69;5090371;28;19935;-74
2021/04/24 10:13:39;;;;;;;;;;;;;;;-142.75;30.50;77239.63;5089946;28;19920;-74
2021/04/24 10:16:06;;;;;;;;;;;;;;;-142.75;29.63;77342.00;5071231;28;20369;-73
2021/04/24 10:18:31;;;;;;;;;;;;;;;-142.75;30.89;77369.56;5090543;28;19912;-73
2021/04/24 10:20:57;;;;;;;;;;;;;;;-142.75;31.75;77391.22;5072348;28;19919;-72
2021/04/24 10:23:23;;;;;;;;;;;;;;;-142.75;29.59;77338.06;5072778;28;20401;-75
2021/04/24 10:25:49;;;;;;;;;;;;;;;-142.75;28.85;77298.69;5089919;28;19912;-72
2021/04/24 10:28:15;;;;;;;;;;;;;;;-142.75;29.60;77231.75;5090605;28;19926;-73
2021/04/24 10:30:40;;;;;;;;;;;;;;;-142.75;29.43;77172.69;5071706;28;19990;-71
2021/04/24 10:33:06;;;;;;;;;;;;;;;-142.75;28.68;77210.09;5090669;28;20349;-73
2021/04/24 10:35:32;;;;;;;;;;;;;;;-142.75;28.95;77153.00;5090435;28;19951;-72
2021/04/24 10:37:57;;;;;;;;;;;;;;;-142.75;29.85;77040.78;5089372;28;19912;-73
2021/04/24 10:40:24;;;;;;;;;;;;;;;-142.75;28.53;77044.72;5093175;28;19916;-72
2021/04/24 10:42:53;;;;;;;;;;;;;;;-142.75;28.74;77007.31;5094157;28;20018;-71
2021/04/24 10:45:32;;;;;;;;;;;;;;;-142.75;28.47;77032.91;5094343;28;19957;-72
2021/04/24 10:47:58;;;;;;;;;;;;;;;-142.75;28.97;77062.44;5094043;28;19919;-72
2021/04/24 10:50:25;;;;;;;;;;;;;;;-142.75;29.54;77005.34;5093958;28;19916;-72
2021/04/24 10:52:51;;;;;;;;;;;;;;;-142.75;27.63;77082.13;5093795;28;19927;-71
2021/04/24 10:55:17;;;;;;;;;;;;;;;-142.75;29.68;77153.00;5094026;28;19912;-73
2021/04/24 10:58:11;;;;;;;;;;;;;;;-142.75;28.96;77109.69;5093931;28;19915;-73
2021/04/24 11:00:36;;;;;;;;;;;;;;;-142.75;29.11;77084.09;5057879;28;19911;-73
2021/04/24 11:03:02;;;;;;;;;;;;;;;-142.75;30.49;77210.09;5093884;28;19916;-72
2021/04/24 11:05:32;;;;;;;;;;;;;;;-142.75;29.98;77086.06;5093939;28;19912;-73
2021/04/24 11:08:21;;;;;;;;;;;;;;;-142.75;28.30;77064.41;5093612;28;19912;-72
2021/04/24 11:10:47;;;;;;;;;;;;;;;-142.75;28.38;77088.03;5093359;28;20373;-73
2021/04/24 11:13:13;;;;;;;;;;;;;;;-142.75;29.53;77046.69;5093528;28;19973;-73
2021/04/24 11:15:40;;;;;;;;;;;;;;;-142.75;30.41;77038.81;5093443;28;19912;-72
2021/04/24 11:18:10;;;;;;;;;;;;;;;-142.75;29.83;77164.81;5093037;28;20352;-73
2021/04/24 11:20:46;;;;;;;;;;;;;;;-142.75;29.86;77255.38;5075114;28;20289;-71
2021/04/24 11:23:30;;;;;;;;;;;;;;;-142.75;30.27;77180.56;5093470;28;20373;-72
2021/04/24 11:25:55;;;;;;;;;;;;;;;-142.75;30.72;77330.19;5093494;28;19935;-73
2021/04/24 11:28:21;;;;;;;;;;;;;;;-142.75;31.16;77351.84;5093273;28;20389;-72
2021/04/24 11:30:57;;;;;;;;;;;;;;;-142.75;32.21;77674.75;5092979;28;19912;-71
2021/04/24 11:33:38;;;;;;;;;;;;;;;-142.75;34.22;77723.97;5090291;28;19920;-72
2021/04/24 11:36:12;;;;;;;;;;;;;;;-142.75;32.72;77576.31;5089213;28;19961;-72
2021/04/24 11:39:07;;;;;;;;;;;;;;;-142.75;32.38;77458.16;5074163;28;20566;-72
2021/04/24 11:41:33;;;;;;;;;;;;;;;-142.75;31.96;77485.75;5075197;28;19958;-73
2021/04/24 11:43:59;;;;;;;;;;;;;;;-142.75;31.53;77499.53;5093020;28;19931;-72
2021/04/24 11:46:37;;;;;;;;;;;;;;;-142.75;32.51;77505.44;5074744;28;19999;-71
2021/04/24 11:49:05;;;;;;;;;;;;;;;-142.75;32.43;77615.69;5092742;28;20365;-71
2021/04/24 11:51:41;;;;;;;;;;;;;;;-142.75;33.52;77588.13;5091587;28;19935;-71
2021/04/24 11:54:09;;;;;;;;;;;;;;;-142.75;33.68;77558.59;5092728;28;19916;-71
2021/04/24 11:56:35;;;;;;;;;;;;;;;-142.75;33.60;77637.34;5092763;28;19942;-72
2021/04/24 11:59:00;;;;;;;;;;;;;;;-142.75;33.14;77775.19;5092881;28;19912;-72
2021/04/24 12:01:26;;;;;;;;;;;;;;;-142.75;34.07;77836.22;5092313;28;19927;-72
2021/04/24 12:03:52;;;;;;;;;;;;;;;-142.75;34.72;77787.00;5074627;28;19919;-71
2021/04/24 12:06:36;;;;;;;;;;;;;;;-142.75;34.89;77788.97;5092531;28;19918;-71
2021/04/24 12:09:03;;;;;;;;;;;;;;;-142.75;34.75;77783.06;5092491;28;19919;-72
2021/04/24 12:11:29;;;;;;;;;;;;;;;-142.75;34.71;77763.38;5092186;28;19912;-72
2021/04/24 12:13:54;;;;;;;;;;;;;;;-142.75;34.39;77761.41;5092402;28;19916;-73
2021/04/24 12:16:19;;;;;;;;;;;;;;;-142.75;35.34;77869.69;5092286;28;20390;-71
2021/04/24 12:18:44;;;;;;;;;;;;;;;-142.75;34.32;77857.88;5091506;28;19926;-71
2021/04/24 12:21:10;;;;;;;;;;;;;;;-142.75;35.20;77920.91;5091321;28;19923;-69
2021/04/24 12:23:35;;;;;;;;;;;;;;;-142.75;34.14;77907.09;5073622;28;20384;-72
2021/04/24 12:26:00;;;;;;;;;;;;;;;-142.75;36.22;77915.00;5091930;28;20377;-72